Time;durP1;ratioP1;P1;durP2;ratioP2;P2;SDS_P1;SDS_P2;PMS_P1;PMS_P2;Temp;Humidity;BMP_temperature;BMP_pressure;BME280_temperature;BME280_humidity;BME280_pressure;Samples;Min_cycle;Max_cycle;Signal;HPM_P1;HPM_P2
2022/09/29 00:02:01;;;;;;;1.33;0.73;;;7.00;95.10;;;;;;4856535;29;20111;-90
2022/09/29 00:04:28;;;;;;;1.88;0.70;;;6.90;95.10;;;;;;4873603;29;20122;-90
2022/09/29 00:06:56;;;;;;;1.88;0.80;;;6.90;95.10;;;;;;4863123;29;20057;-90
2022/09/29 00:09:31;;;;;;;2.25;0.73;;;6.90;95.10;;;;;;4851133;29;20528;-91
2022/09/29 00:12:01;;;;;;;1.65;0.70;;;6.90;95.10;;;;;;4861579;29;20044;-91
2022/09/29 00:14:36;;;;;;;1.27;0.57;;;6.90;95.10;;;;;;4849608;29;20048;-90
2022/09/29 00:17:04;;;;;;;1.80;0.73;;;6.90;95.10;;;;;;4871989;29;20049;-90
2022/09/29 00:19:32;;;;;;;2.15;0.70;;;6.90;95.10;;;;;;4879416;29;20073;-89
2022/09/29 00:22:00;;;;;;;2.25;0.93;;;6.80;95.10;;;;;;4876469;29;20053;-91
2022/09/29 00:24:30;;;;;;;1.45;0.70;;;6.80;95.10;;;;;;4865442;29;20143;-90
2022/09/29 00:26:57;;;;;;;1.73;0.65;;;6.80;95.10;;;;;;4864511;29;20045;-90
2022/09/29 00:29:35;;;;;;;1.25;0.50;;;6.80;95.10;;;;;;4866767;29;20045;-91
2022/09/29 00:32:13;;;;;;;1.77;0.50;;;6.80;95.10;;;;;;4867743;29;20052;-91
2022/09/29 00:34:55;;;;;;;1.00;0.47;;;6.80;95.10;;;;;;4866210;29;20077;-91
2022/09/29 00:37:25;;;;;;;1.60;0.70;;;6.70;95.10;;;;;;4867713;29;20082;-91
2022/09/29 00:39:52;;;;;;;1.58;0.50;;;6.70;95.10;;;;;;4863374;29;20060;-91
2022/09/29 00:42:20;;;;;;;1.77;0.80;;;6.70;95.00;;;;;;4848955;29;20119;-91
2022/09/29 00:45:14;;;;;;;1.67;0.60;;;6.70;95.10;;;;;;4864179;29;20139;-91
2022/09/29 00:47:46;;;;;;;1.38;0.70;;;6.70;95.10;;;;;;4848330;29;20073;-91
2022/09/29 00:50:47;;;;;;;1.52;0.75;;;6.70;95.10;;;;;;4864135;29;20485;-90
2022/09/29 00:53:26;;;;;;;1.65;0.70;;;6.60;95.10;;;;;;4868312;29;20056;-91
2022/09/29 00:56:19;;;;;;;1.45;0.60;;;6.60;95.10;;;;;;4866607;29;20053;-89
2022/09/29 01:02:18;;;;;;;1.08;0.60;;;6.60;95.10;;;;;;4826125;29;20054;-91
2022/09/29 01:04:52;;;;;;;1.40;0.50;;;6.60;95.20;;;;;;4811984;29;20197;-91
2022/09/29 01:07:23;;;;;;;1.35;0.52;;;6.50;95.10;;;;;;4852789;29;20064;-91
2022/09/29 01:09:55;;;;;;;2.10;1.00;;;6.60;95.10;;;;;;4882179;29;20049;-90
2022/09/29 01:12:25;;;;;;;1.23;0.60;;;6.60;95.10;;;;;;4900910;29;20048;-90
2022/09/29 01:14:56;;;;;;;1.27;0.65;;;6.50;95.10;;;;;;4875466;29;20053;-90
2022/09/29 01:17:29;;;;;;;1.58;0.63;;;6.50;95.10;;;;;;4873343;29;20525;-89
2022/09/29 01:20:08;;;;;;;2.20;0.50;;;6.50;95.10;;;;;;4848506;29;20049;-90
2022/09/29 01:23:06;;;;;;;1.05;0.50;;;6.50;95.10;;;;;;4863963;29;20494;-90
2022/09/29 01:26:11;;;;;;;1.35;0.60;;;6.50;95.10;;;;;;4847977;29;20050;-88
2022/09/29 01:29:25;;;;;;;0.90;0.50;;;6.40;95.00;;;;;;4855826;29;20486;-91
2022/09/29 01:32:21;;;;;;;0.85;0.40;;;6.40;95.10;;;;;;4835318;29;20046;-90
2022/09/29 01:35:24;;;;;;;1.85;1.10;;;6.40;95.10;;;;;;4872386;29;20049;-89
2022/09/29 01:38:07;;;;;;;1.27;0.57;;;6.40;95.10;;;;;;4877897;29;20081;-90
2022/09/29 01:41:00;;;;;;;1.38;0.60;;;6.40;95.10;;;;;;4866860;29;20053;-91
2022/09/29 01:43:43;;;;;;;0.68;0.30;;;6.30;95.00;;;;;;4856825;29;20216;-90
2022/09/29 01:46:17;;;;;;;1.40;0.73;;;6.30;95.10;;;;;;4856591;29;20105;-90
2022/09/29 01:48:49;;;;;;;1.20;0.43;;;6.30;95.10;;;;;;4870210;29;20047;-91
2022/09/29 01:51:21;;;;;;;1.65;0.50;;;6.30;95.10;;;;;;4885488;29;20053;-90
2022/09/29 01:54:10;;;;;;;1.10;0.47;;;6.30;95.10;;;;;;4879412;29;20052;-90
2022/09/29 01:57:04;;;;;;;1.27;0.50;;;6.20;95.10;;;;;;4896266;29;20061;-90
2022/09/29 02:00:11;;;;;;;2.08;0.82;;;6.20;95.10;;;;;;4884183;29;20052;-91
2022/09/29 02:02:43;;;;;;;1.42;0.60;;;6.20;95.10;;;;;;4878269;29;20140;-91
2022/09/29 02:05:20;;;;;;;1.67;0.60;;;6.20;95.20;;;;;;4872806;29;20083;-90
2022/09/29 02:07:53;;;;;;;1.67;0.70;;;6.20;95.20;;;;;;4861185;29;20065;-90
2022/09/29 02:14:13;;;;;;;1.75;1.02;;;6.10;95.10;;;;;;4883964;29;20053;-90
2022/09/29 02:16:47;;;;;;;0.98;0.57;;;6.10;95.20;;;;;;4889577;29;20045;-90
2022/09/29 02:19:31;;;;;;;1.52;0.43;;;6.10;95.20;;;;;;4869768;29;20071;-90
2022/09/29 02:22:11;;;;;;;1.05;0.60;;;6.10;95.20;;;;;;4859462;29;20068;-90
2022/09/29 02:24:43;;;;;;;2.30;0.60;;;6.00;95.20;;;;;;4849768;29;20110;-90
2022/09/29 02:27:10;;;;;;;1.40;0.73;;;6.00;95.20;;;;;;4866201;29;20070;-90
2022/09/29 02:29:41;;;;;;;1.55;0.50;;;6.00;95.20;;;;;;4884222;29;20104;-91
2022/09/29 02:32:09;;;;;;;1.33;0.50;;;6.00;95.20;;;;;;4863109;29;20080;-90
2022/09/29 02:34:53;;;;;;;1.25;0.60;;;6.00;95.20;;;;;;4861042;29;20068;-90
2022/09/29 02:37:35;;;;;;;1.10;0.60;;;6.00;95.20;;;;;;4883525;29;20056;-91
2022/09/29 02:40:27;;;;;;;1.77;0.50;;;6.00;95.20;;;;;;4877494;29;20491;-91
2022/09/29 02:43:28;;;;;;;0.97;0.50;;;6.00;95.20;;;;;;4859006;29;20502;-89
2022/09/29 02:46:09;;;;;;;0.90;0.40;;;6.00;95.20;;;;;;4865688;29;20486;-91
2022/09/29 02:49:10;;;;;;;2.83;0.50;;;5.90;95.10;;;;;;4865486;29;20084;-89
2022/09/29 02:51:45;;;;;;;;;;;5.90;95.10;;;;;;4860498;29;20497;-89
2022/09/29 02:54:27;;;;;;;1.58;0.55;;;5.80;95.20;;;;;;4878462;29;19959;-90
2022/09/29 02:57:11;;;;;;;1.45;0.43;;;5.80;95.20;;;;;;4865221;29;20505;-89
2022/09/29 02:59:56;;;;;;;1.33;0.57;;;5.80;95.20;;;;;;4886942;29;20481;-90
2022/09/29 03:02:25;;;;;;;0.98;0.50;;;5.80;95.20;;;;;;4861110;29;20052;-90
2022/09/29 03:04:53;;;;;;;1.63;0.80;;;5.80;95.20;;;;;;4849983;29;20049;-89
2022/09/29 03:07:21;;;;;;;1.30;0.40;;;5.80;95.20;;;;;;4865458;29;20468;-90
2022/09/29 03:09:53;;;;;;;;;;;5.80;95.20;;;;;;4883940;29;20141;-89
2022/09/29 03:12:23;;;;;;;1.88;0.70;;;5.70;95.20;;;;;;4867101;29;19924;-90
2022/09/29 03:14:50;;;;;;;2.13;0.90;;;5.70;95.20;;;;;;4849546;29;20140;-90
2022/09/29 03:17:23;;;;;;;1.40;0.60;;;5.70;95.20;;;;;;4861775;29;20045;-90
2022/09/29 03:19:51;;;;;;;1.35;0.70;;;5.70;95.20;;;;;;4848056;29;20049;-90
2022/09/29 03:22:18;;;;;;;1.55;0.60;;;5.70;95.20;;;;;;4871639;29;20068;-90
2022/09/29 03:24:45;;;;;;;1.02;0.60;;;5.70;95.20;;;;;;4874017;29;20097;-90
2022/09/29 03:27:18;;;;;;;1.63;0.88;;;5.70;95.20;;;;;;4872593;29;20044;-90
2022/09/29 03:29:45;;;;;;;2.45;0.70;;;5.70;95.20;;;;;;4864195;29;20049;-90
2022/09/29 03:32:12;;;;;;;1.88;0.80;;;5.70;95.20;;;;;;4879898;29;20049;-90
2022/09/29 03:34:49;;;;;;;1.63;0.77;;;5.70;95.30;;;;;;4877964;29;20093;-91
2022/09/29 03:37:22;;;;;;;2.40;1.00;;;5.60;95.20;;;;;;4861538;29;20057;-91
2022/09/29 03:39:53;;;;;;;1.33;0.63;;;5.60;95.20;;;;;;4864977;29;20063;-90
2022/09/29 03:42:23;;;;;;;1.70;0.68;;;5.60;95.20;;;;;;4871367;29;20045;-90
2022/09/29 03:44:52;;;;;;;0.55;0.35;;;5.60;95.20;;;;;;4880697;29;20057;-89
2022/09/29 03:47:20;;;;;;;1.23;0.70;;;5.60;95.20;;;;;;4880443;29;20108;-89
2022/09/29 03:49:49;;;;;;;1.75;0.82;;;5.60;95.20;;;;;;4858686;29;20062;-90
2022/09/29 03:52:20;;;;;;;2.05;0.88;;;5.60;95.20;;;;;;4873337;29;20116;-90
2022/09/29 03:54:52;;;;;;;2.17;0.88;;;5.60;95.20;;;;;;4867878;29;20052;-90
2022/09/29 03:57:21;;;;;;;2.35;1.35;;;5.60;95.20;;;;;;4871385;29;20059;-88
2022/09/29 03:59:52;;;;;;;3.25;1.35;;;5.60;95.20;;;;;;4876580;29;20049;-89
2022/09/29 04:02:34;;;;;;;2.35;0.93;;;5.70;95.20;;;;;;4870619;29;20151;-89
2022/09/29 04:05:02;;;;;;;2.75;0.90;;;5.70;95.20;;;;;;4850327;29;20049;-88
2022/09/29 04:07:31;;;;;;;2.67;1.15;;;5.80;95.10;;;;;;4865740;29;20072;-89
2022/09/29 04:09:59;;;;;;;2.83;1.40;;;5.80;95.10;;;;;;4864395;29;20045;-89
2022/09/29 04:12:26;;;;;;;3.63;1.33;;;5.80;95.10;;;;;;4872607;29;20132;-89
2022/09/29 04:14:54;;;;;;;1.80;1.00;;;5.80;95.10;;;;;;4882530;29;20413;-90
2022/09/29 04:17:22;;;;;;;2.17;1.10;;;5.70;95.10;;;;;;4860731;29;20054;-90
2022/09/29 04:19:51;;;;;;;2.00;1.02;;;5.70;95.10;;;;;;4870123;29;20048;-89
2022/09/29 04:22:41;;;;;;;2.33;1.00;;;5.70;95.10;;;;;;4865481;29;20049;-89
2022/09/29 04:25:09;;;;;;;2.28;1.15;;;5.70;95.10;;;;;;4860590;29;20072;-90
2022/09/29 04:27:36;;;;;;;2.15;1.08;;;5.70;95.10;;;;;;4862418;29;20457;-90
2022/09/29 04:30:07;;;;;;;2.55;1.23;;;5.80;95.10;;;;;;4862317;29;20045;-90
2022/09/29 04:32:38;;;;;;;2.58;1.27;;;5.80;95.10;;;;;;4881560;29;20156;-88
2022/09/29 04:35:06;;;;;;;2.22;1.10;;;5.90;95.00;;;;;;4886452;29;20516;-90
2022/09/29 04:37:33;;;;;;;2.40;1.08;;;5.90;95.00;;;;;;4882486;29;20183;-89
2022/09/29 04:40:02;;;;;;;3.38;1.00;;;6.00;94.90;;;;;;4870155;29;20491;-90
2022/09/29 04:42:29;;;;;;;3.20;1.42;;;6.10;94.90;;;;;;4861248;29;20053;-89
2022/09/29 04:44:57;;;;;;;2.00;0.80;;;6.10;94.80;;;;;;4868321;29;20057;-90
2022/09/29 04:47:27;;;;;;;3.78;1.30;;;6.10;94.80;;;;;;4852511;29;20554;-89
2022/09/29 04:49:57;;;;;;;2.42;1.10;;;6.20;94.80;;;;;;4852978;29;20502;-90
2022/09/29 04:52:27;;;;;;;2.67;1.05;;;6.20;94.80;;;;;;4875028;29;20065;-89
2022/09/29 04:54:57;;;;;;;3.15;0.93;;;6.20;94.80;;;;;;4871709;29;20045;-90
2022/09/29 04:57:26;;;;;;;3.15;1.20;;;6.30;94.80;;;;;;4867854;29;20076;-90
2022/09/29 05:00:25;;;;;;;1.95;0.88;;;6.30;94.80;;;;;;4864400;29;20059;-89
2022/09/29 05:03:02;;;;;;;2.75;1.35;;;6.30;94.70;;;;;;4877848;29;20053;-89
2022/09/29 05:05:41;;;;;;;1.50;0.70;;;6.30;94.70;;;;;;4884455;29;20051;-89
2022/09/29 05:08:08;;;;;;;2.63;1.00;;;6.30;94.70;;;;;;4877945;29;20486;-89
2022/09/29 05:10:46;;;;;;;2.15;0.70;;;6.40;94.70;;;;;;4852548;29;20059;-89
2022/09/29 05:13:25;;;;;;;3.03;0.80;;;6.40;94.70;;;;;;4852553;29;20383;-90
2022/09/29 05:15:56;;;;;;;2.42;1.08;;;6.40;94.70;;;;;;4853461;29;20056;-89
2022/09/29 05:18:30;;;;;;;1.45;0.70;;;6.40;94.70;;;;;;4875605;29;20117;-89
2022/09/29 05:21:09;;;;;;;1.20;0.63;;;6.40;94.70;;;;;;4878047;29;20048;-90
2022/09/29 05:23:54;;;;;;;2.97;1.02;;;6.50;94.70;;;;;;4874361;29;20044;-91
2022/09/29 05:26:28;;;;;;;3.63;0.90;;;6.40;94.70;;;;;;4868317;29;20540;-90
2022/09/29 05:28:55;;;;;;;2.95;0.80;;;6.50;94.70;;;;;;4875557;29;20097;-89
2022/09/29 05:31:38;;;;;;;3.58;0.70;;;6.50;94.70;;;;;;4872425;29;20059;-89
2022/09/29 05:34:09;;;;;;;2.05;0.98;;;6.50;94.60;;;;;;4883801;29;20048;-89
2022/09/29 05:36:53;;;;;;;1.35;0.70;;;6.50;94.60;;;;;;4884881;29;20116;-89
2022/09/29 05:39:20;;;;;;;2.28;0.98;;;6.50;94.60;;;;;;4870385;29;20078;-89
2022/09/29 05:41:56;;;;;;;1.90;1.00;;;6.50;94.60;;;;;;4862392;29;20057;-90
2022/09/29 05:44:26;;;;;;;1.85;1.02;;;6.50;94.60;;;;;;4885102;29;20072;-89
2022/09/29 05:46:56;;;;;;;3.08;1.00;;;6.50;94.60;;;;;;4892315;29;20044;-88
2022/09/29 05:49:23;;;;;;;2.90;0.77;;;6.50;94.60;;;;;;4882301;29;20053;-91
2022/09/29 05:52:05;;;;;;;1.50;0.80;;;6.50;94.60;;;;;;4882397;29;20061;-92
2022/09/29 05:54:49;;;;;;;2.58;0.98;;;6.50;94.60;;;;;;4870773;29;20049;-91
2022/09/29 06:04:23;;;;;;;5.13;1.08;;;6.60;94.60;;;;;;2196698;23;20635;-90
2022/09/29 06:12:26;;;;;;;4.85;0.98;;;6.60;94.50;;;;;;4772585;30;20051;-93
2022/09/29 06:21:32;;;;;;;4.80;1.20;;;6.60;94.50;;;;;;4711828;30;20036;-93
2022/09/29 06:29:28;;;;;;;;;;;;;;;;;;;;;
2022/09/29 06:33:23;;;;;;;;;;;;;;;;;;;;;
2022/09/29 06:41:50;;;;;;;;;;;;;;;;;;;;;
2022/09/29 06:46:07;;;;;;;3.83;1.17;;;7.00;94.30;;;;;;4829278;29;20111;-90
2022/09/29 06:48:35;;;;;;;;;;;7.10;94.30;;;;;;4827072;29;20106;-89
2022/09/29 06:51:11;;;;;;;3.65;1.58;;;7.00;94.20;;;;;;4842795;29;20461;-89
2022/09/29 06:53:40;;;;;;;2.88;1.20;;;7.10;94.20;;;;;;4842717;29;20046;-90
2022/09/29 06:56:08;;;;;;;4.00;1.30;;;7.10;94.20;;;;;;4827336;29;20050;-89
2022/09/29 06:58:38;;;;;;;4.85;2.10;;;7.20;94.20;;;;;;4842555;29;20054;-90
2022/09/29 07:01:08;;;;;;;4.00;1.42;;;7.30;94.20;;;;;;4842869;29;20054;-88
2022/09/29 07:03:39;;;;;;;4.07;1.80;;;7.40;94.20;;;;;;4873394;29;20048;-89
2022/09/29 07:06:10;;;;;;;9.13;2.30;;;7.40;94.10;;;;;;4864296;29;20068;-89
2022/09/29 07:08:58;;;;;;;4.78;2.13;;;7.50;94.20;;;;;;4857446;29;20053;-90
2022/09/29 07:11:26;;;;;;;4.57;2.40;;;7.60;94.10;;;;;;4852659;29;20049;-89
2022/09/29 07:13:54;;;;;;;7.63;2.50;;;7.60;94.10;;;;;;4864611;29;20089;-90
2022/09/29 07:16:58;;;;;;;5.97;2.53;;;7.60;94.00;;;;;;4850346;29;20088;-90
2022/09/29 07:19:33;;;;;;;5.18;2.40;;;7.70;94.00;;;;;;4860785;29;20392;-89
2022/09/29 07:22:08;;;;;;;5.85;2.33;;;7.80;94.00;;;;;;4859568;29;20068;-89
2022/09/29 07:24:47;;;;;;;5.68;2.63;;;7.80;94.00;;;;;;4837025;29;20081;-89
2022/09/29 07:27:23;;;;;;;;;;;7.80;93.90;;;;;;4837003;29;20153;-90
2022/09/29 07:29:50;;;;;;;4.80;2.60;;;7.90;93.90;;;;;;4851726;29;19924;-89
2022/09/29 07:32:35;;;;;;;5.97;2.45;;;7.90;93.90;;;;;;4852415;29;20076;-89
2022/09/29 07:35:12;;;;;;;7.22;3.10;;;8.00;93.80;;;;;;4852214;29;20045;-89
2022/09/29 07:37:52;;;;;;;6.25;3.22;;;8.00;93.80;;;;;;4849484;29;20053;-89
2022/09/29 07:40:23;;;;;;;5.28;3.13;;;8.10;93.80;;;;;;4865891;29;20109;-90
2022/09/29 07:42:54;;;;;;;4.80;2.72;;;8.20;93.80;;;;;;4850663;29;20067;-89
2022/09/29 07:45:46;;;;;;;;;;;;;;;;;;;;;
2022/09/29 07:48:30;;;;;;;4.30;2.47;;;8.30;93.70;;;;;;4849243;29;20079;-91
2022/09/29 07:51:40;;;;;;;9.15;3.42;;;8.40;93.70;;;;;;4823019;29;20067;-91
2022/09/29 07:54:18;;;;;;;5.55;3.25;;;8.50;93.60;;;;;;4826173;29;20046;-89
2022/09/29 07:59:51;;;;;;;8.55;3.88;;;8.60;93.60;;;;;;4795119;29;20050;-91
2022/09/29 08:02:23;;;;;;;10.98;4.15;;;8.60;93.60;;;;;;4790616;29;20450;-90
2022/09/29 08:05:38;;;;;;;;;;;;;;;;;;;;;
2022/09/29 08:08:38;;;;;;;6.43;3.70;;;8.60;93.50;;;;;;4805784;29;20047;-91
2022/09/29 08:11:43;;;;;;;8.00;3.85;;;8.70;93.50;;;;;;4779480;29;20078;-91
2022/09/29 08:14:46;;;;;;;;;;;;;;;;;;;;;
2022/09/29 08:21:24;;;;;;;7.13;3.38;;;9.00;93.50;;;;;;4806015;29;20067;-92
2022/09/29 08:24:15;;;;;;;6.32;3.35;;;9.00;93.40;;;;;;4832029;29;20137;-91
2022/09/29 08:26:43;;;;;;;6.82;4.03;;;9.10;93.30;;;;;;4813799;29;20059;-89
2022/09/29 08:29:16;;;;;;;7.70;4.35;;;9.20;93.30;;;;;;4781505;29;20224;-90
2022/09/29 08:31:50;;;;;;;9.18;4.53;;;9.30;93.20;;;;;;4793952;29;20072;-89
2022/09/29 08:34:23;;;;;;;7.68;4.03;;;9.30;93.20;;;;;;4820827;29;20512;-89
2022/09/29 08:37:03;;;;;;;9.13;5.07;;;9.50;93.30;;;;;;4795130;29;20111;-88
2022/09/29 08:39:31;;;;;;;10.10;5.63;;;9.50;93.10;;;;;;4810637;29;20054;-88
2022/09/29 08:42:10;;;;;;;9.50;5.18;;;9.60;93.10;;;;;;4838845;29;20145;-88
2022/09/29 08:45:06;;;;;;;8.43;5.18;;;9.70;93.00;;;;;;4813289;29;20050;-92
2022/09/29 08:48:03;;;;;;;7.72;4.70;;;9.80;93.00;;;;;;4833577;29;20041;-91
2022/09/29 08:54:30;;;;;;;8.00;5.30;;;9.90;92.90;;;;;;4853205;29;20144;-92
2022/09/29 08:57:27;;;;;;;8.43;4.95;;;10.10;92.90;;;;;;4860863;29;20063;-92
2022/09/29 09:04:37;;;;;;;11.07;5.47;;;10.20;92.80;;;;;;4863090;29;20120;-93
2022/09/29 09:07:40;;;;;;;9.35;5.65;;;10.30;92.70;;;;;;4862674;29;20080;-92
2022/09/29 09:13:56;;;;;;;8.52;5.38;;;10.40;92.80;;;;;;4821079;29;20055;-91
2022/09/29 09:21:55;;;;;;;11.90;6.05;;;10.50;92.60;;;;;;4755294;30;20087;-93
2022/09/29 09:24:53;;;;;;;10.00;5.47;;;10.50;92.70;;;;;;4771558;30;20059;-91
2022/09/29 09:29:15;;;;;;;7.72;5.18;;;10.60;92.70;;;;;;4737268;30;20075;-92
2022/09/29 09:33:05;;;;;;;;;;;;;;;;;;;;;
2022/09/29 09:36:34;;;;;;;13.05;7.43;;;10.70;92.50;;;;;;4654434;30;20053;-93
2022/09/29 09:39:51;;;;;;;15.05;10.05;;;10.50;92.60;;;;;;4695197;30;20049;-91
2022/09/29 09:42:46;;;;;;;;;;;;;;;;;;;;;
2022/09/29 09:45:53;;;;;;;11.32;6.95;;;10.20;93.00;;;;;;4799875;29;20503;-90
2022/09/29 09:49:32;;;;;;;9.73;5.82;;;10.20;93.10;;;;;;4785196;29;20069;-91
2022/09/29 09:52:48;;;;;;;7.72;4.90;;;10.20;93.10;;;;;;4816819;29;20063;-91
2022/09/29 09:56:16;;;;;;;8.10;5.05;;;10.20;93.20;;;;;;4790398;29;20110;-92
2022/09/29 09:59:17;;;;;;;8.20;4.57;;;10.20;93.10;;;;;;4816023;29;20092;-92
2022/09/29 10:02:27;;;;;;;7.35;4.60;;;10.30;93.10;;;;;;4817934;29;20053;-92
2022/09/29 10:05:47;;;;;;;8.07;5.13;;;10.30;93.10;;;;;;4779935;30;20047;-92
2022/09/29 10:12:01;;;;;;;10.38;6.63;;;10.40;93.00;;;;;;4769099;30;20866;-92
2022/09/29 10:15:53;;;;;;;9.80;6.45;;;10.50;93.00;;;;;;4748649;30;20044;-92
2022/09/29 10:19:05;;;;;;;8.98;6.85;;;10.60;92.90;;;;;;4727544;30;20124;-90
2022/09/29 10:22:10;;;;;;;6.82;4.82;;;10.70;92.90;;;;;;4752503;30;20063;-91
2022/09/29 10:25:14;;;;;;;6.20;4.18;;;10.70;92.80;;;;;;4773149;30;20153;-91
2022/09/29 10:28:11;;;;;;;;;;;;;;;;;;;;;
2022/09/29 10:31:37;;;;;;;6.10;4.07;;;10.80;92.90;;;;;;4862790;29;20459;-91
2022/09/29 10:34:24;;;;;;;5.45;3.38;;;10.80;92.90;;;;;;4849600;29;20049;-90
2022/09/29 10:37:39;;;;;;;4.88;3.33;;;10.90;92.90;;;;;;4827488;29;20101;-91
2022/09/29 10:40:32;;;;;;;4.75;2.70;;;11.00;92.90;;;;;;4838724;29;20057;-90
2022/09/29 10:43:51;;;;;;;6.93;4.32;;;11.00;92.80;;;;;;4847024;29;20058;-91
2022/09/29 10:47:00;;;;;;;4.65;3.10;;;11.10;92.70;;;;;;4830677;29;20149;-90
2022/09/29 10:49:42;;;;;;;6.03;3.97;;;11.20;92.70;;;;;;4843427;29;20050;-90
2022/09/29 10:52:32;;;;;;;6.80;4.47;;;11.30;92.70;;;;;;4828624;29;20141;-91
2022/09/29 10:55:45;;;;;;;;;;;;;;;;;;;;;
2022/09/29 10:58:53;;;;;;;9.68;6.13;;;11.40;92.50;;;;;;4855924;29;20057;-91
2022/09/29 11:05:46;;;;;;;;;;;;;;;;;;;;;
2022/09/29 11:09:25;;;;;;;6.32;4.55;;;11.70;92.20;;;;;;4858901;29;20041;-88
2022/09/29 11:11:56;;;;;;;6.68;4.40;;;11.70;92.10;;;;;;4801088;29;20049;-91
2022/09/29 11:14:54;;;;;;;;;;;;;;;;;;;;;
2022/09/29 11:17:51;;;;;;;6.90;4.18;;;11.80;92.20;;;;;;4864703;29;20387;-90
2022/09/29 11:20:25;;;;;;;5.38;3.25;;;11.90;92.20;;;;;;4837163;29;20489;-88
2022/09/29 11:23:10;;;;;;;6.05;4.05;;;12.00;92.10;;;;;;4850516;29;20600;-88
2022/09/29 11:26:14;;;;;;;5.00;3.38;;;12.10;92.00;;;;;;4862636;29;20053;-88
2022/09/29 11:28:47;;;;;;;4.25;2.75;;;12.10;92.00;;;;;;4845815;29;20046;-91
2022/09/29 11:31:15;;;;;;;4.65;2.83;;;12.10;92.10;;;;;;4876908;29;20053;-88
2022/09/29 11:34:26;;;;;;;5.63;3.05;;;12.30;92.10;;;;;;4843707;29;20138;-87
2022/09/29 11:37:05;;;;;;;4.65;2.38;;;12.40;91.80;;;;;;4850423;29;20150;-90
2022/09/29 11:39:56;;;;;;;5.25;3.83;;;12.50;91.80;;;;;;4864212;29;20053;-90
2022/09/29 11:43:00;;;;;;;7.18;3.92;;;12.60;91.70;;;;;;4863804;29;20052;-88
2022/09/29 11:45:43;;;;;;;5.63;3.78;;;12.70;91.50;;;;;;4875522;29;20052;-90
2022/09/29 11:48:46;;;;;;;7.35;4.28;;;12.80;91.30;;;;;;4879083;29;20050;-91
2022/09/29 11:52:00;;;;;;;5.88;3.60;;;12.80;91.10;;;;;;4882775;29;20037;-88
2022/09/29 11:54:42;;;;;;;7.88;4.05;;;12.90;91.10;;;;;;4844182;29;20056;-90
2022/09/29 11:57:18;;;;;;;6.10;3.88;;;12.90;91.10;;;;;;4838556;29;20096;-88
2022/09/29 11:59:58;;;;;;;5.70;3.63;;;13.00;90.90;;;;;;4855795;29;20049;-89
2022/09/29 12:02:49;;;;;;;5.43;2.40;;;13.00;91.00;;;;;;4870049;29;20109;-88
2022/09/29 12:05:34;;;;;;;4.72;2.10;;;13.00;91.00;;;;;;4864534;29;20074;-92
2022/09/29 12:08:13;;;;;;;4.32;2.72;;;13.00;91.10;;;;;;4842187;29;20087;-91
2022/09/29 12:10:57;;;;;;;4.97;2.92;;;13.10;90.90;;;;;;4867232;29;20426;-91
2022/09/29 12:13:38;;;;;;;3.20;1.80;;;13.10;90.90;;;;;;4860840;29;20045;-90
2022/09/29 12:20:48;;;;;;;;;;;;;;;;;;;;;
2022/09/29 12:23:20;;;;;;;3.13;1.80;;;13.40;90.50;;;;;;4873496;29;20121;-92
2022/09/29 12:26:03;;;;;;;3.65;2.30;;;13.50;90.50;;;;;;4859612;29;20053;-90
2022/09/29 12:28:59;;;;;;;3.83;1.30;;;13.60;90.40;;;;;;4841477;29;20388;-90
2022/09/29 12:31:33;;;;;;;1.95;1.00;;;13.70;90.30;;;;;;4831983;29;20502;-90
2022/09/29 12:34:39;;;;;;;3.78;1.85;;;13.90;90.20;;;;;;4864239;29;20059;-92
2022/09/29 12:37:17;;;;;;;3.17;1.70;;;14.00;89.80;;;;;;4826901;29;20522;-91
2022/09/29 12:40:38;;;;;;;5.63;1.75;;;14.10;89.60;;;;;;4843258;29;20522;-89
2022/09/29 12:43:14;;;;;;;2.95;1.65;;;14.20;89.30;;;;;;4835772;29;20063;-90
2022/09/29 12:45:53;;;;;;;4.53;2.28;;;14.30;89.40;;;;;;4863858;29;20060;-90
2022/09/29 12:48:47;;;;;;;4.15;2.08;;;14.30;87.70;;;;;;4857112;29;20046;-89
2022/09/29 12:51:25;;;;;;;2.58;1.52;;;14.20;87.80;;;;;;4855416;29;20061;-88
2022/09/29 12:54:22;;;;;;;5.93;1.70;;;14.10;88.00;;;;;;4875901;29;20155;-90
2022/09/29 12:57:21;;;;;;;2.22;1.23;;;14.00;88.20;;;;;;4865771;29;20045;-94
2022/09/29 13:00:05;;;;;;;3.38;1.27;;;13.90;88.50;;;;;;4857308;29;20075;-88
2022/09/29 13:02:53;;;;;;;2.17;1.27;;;13.90;88.70;;;;;;4847407;29;20236;-90
2022/09/29 13:05:48;;;;;;;3.25;1.67;;;13.70;88.50;;;;;;4867538;29;20055;-93
2022/09/29 13:08:39;;;;;;;2.65;1.35;;;13.70;88.80;;;;;;4822366;29;20152;-92
2022/09/29 13:11:57;;;;;;;2.00;0.95;;;13.70;88.80;;;;;;4837877;29;20054;-92
2022/09/29 13:14:38;;;;;;;2.10;0.90;;;13.60;88.90;;;;;;4842731;29;20082;-93
2022/09/29 13:17:11;;;;;;;1.90;0.93;;;13.60;88.90;;;;;;4846768;29;20053;-92
2022/09/29 13:19:55;;;;;;;2.92;1.15;;;13.60;89.00;;;;;;4848903;29;20115;-91
2022/09/29 13:22:55;;;;;;;3.60;1.23;;;13.60;89.00;;;;;;4843278;29;20145;-92
2022/09/29 13:25:57;;;;;;;1.60;0.90;;;13.50;89.10;;;;;;4820813;29;20050;-89
2022/09/29 13:28:25;;;;;;;1.98;0.60;;;13.40;89.10;;;;;;4832680;29;20042;-87
2022/09/29 13:31:04;;;;;;;1.58;0.85;;;13.30;89.40;;;;;;4832646;29;20058;-91
2022/09/29 13:33:33;;;;;;;1.98;0.82;;;13.40;89.00;;;;;;4844439;29;20416;-90
2022/09/29 13:36:04;;;;;;;2.55;0.90;;;13.50;88.50;;;;;;4826829;29;20050;-90
2022/09/29 13:38:38;;;;;;;2.15;0.85;;;13.60;87.90;;;;;;4842708;29;20521;-89
2022/09/29 13:41:39;;;;;;;1.50;0.80;;;13.70;87.70;;;;;;4830692;29;20054;-89
2022/09/29 13:44:24;;;;;;;1.80;0.82;;;13.80;87.40;;;;;;4831486;29;20078;-89
2022/09/29 13:46:54;;;;;;;2.10;1.35;;;13.90;87.40;;;;;;4834281;29;20065;-81
2022/09/29 13:49:24;;;;;;;3.22;1.33;;;14.00;86.70;;;;;;4832929;29;20060;-82
2022/09/29 13:51:53;;;;;;;1.42;0.80;;;14.00;86.30;;;;;;4836382;29;20097;-82
2022/09/29 13:54:28;;;;;;;2.58;1.20;;;14.10;86.40;;;;;;4829712;29;20098;-86
2022/09/29 13:57:24;;;;;;;2.75;1.20;;;14.20;85.90;;;;;;4841921;29;20542;-86
2022/09/29 13:59:54;;;;;;;2.33;0.93;;;14.40;85.30;;;;;;4859681;29;20048;-87
2022/09/29 14:02:38;;;;;;;2.83;0.80;;;14.50;85.10;;;;;;4832943;29;20102;-84
2022/09/29 14:05:25;;;;;;;1.33;0.63;;;14.60;84.60;;;;;;4833421;29;20107;-84
2022/09/29 14:07:58;;;;;;;1.92;0.75;;;14.70;84.50;;;;;;4823878;29;20050;-89
2022/09/29 14:10:34;;;;;;;1.85;0.68;;;14.70;84.70;;;;;;4847904;29;20053;-85
2022/09/29 14:13:06;;;;;;;2.00;0.80;;;14.80;84.60;;;;;;4838209;29;20046;-85
2022/09/29 14:15:39;;;;;;;1.05;0.60;;;14.80;84.60;;;;;;4839840;29;20060;-85
2022/09/29 14:18:42;;;;;;;1.55;0.70;;;15.00;84.40;;;;;;4819412;29;20148;-88
2022/09/29 14:21:12;;;;;;;1.33;0.43;;;15.30;83.50;;;;;;4813161;29;20110;-86
2022/09/29 14:23:44;;;;;;;1.40;0.60;;;15.40;83.60;;;;;;4816381;29;20217;-88
2022/09/29 14:26:41;;;;;;;2.22;0.50;;;15.50;83.80;;;;;;4842902;29;20411;-90
2022/09/29 14:29:27;;;;;;;2.65;0.63;;;15.60;81.90;;;;;;4840496;29;20042;-87
2022/09/29 14:32:00;;;;;;;1.27;0.50;;;15.60;81.40;;;;;;4811278;29;20181;-90
2022/09/29 14:34:31;;;;;;;;;;;15.60;81.40;;;;;;4813280;29;20173;-89
2022/09/29 14:37:02;;;;;;;6.80;0.50;;;15.60;80.90;;;;;;4823778;29;19973;-87
2022/09/29 14:39:30;;;;;;;1.23;0.45;;;15.60;81.40;;;;;;4801604;29;20071;-86
2022/09/29 14:41:58;;;;;;;0.93;0.43;;;15.60;81.30;;;;;;4839086;29;20074;-88
2022/09/29 14:51:56;;;;;;;0.93;0.40;;;15.60;81.20;;;;;;4831800;29;20208;-87
2022/09/29 14:53:44;;;;;;;1.00;0.57;;;15.40;80.90;;;;;;4840470;29;20046;-86
2022/09/29 14:56:22;;;;;;;1.38;0.50;;;15.40;80.60;;;;;;4824045;29;20146;-83
2022/09/29 14:59:06;;;;;;;1.48;0.60;;;15.40;80.70;;;;;;4838394;29;20423;-84
2022/09/29 15:01:37;;;;;;;1.83;0.70;;;15.40;80.00;;;;;;4833115;29;20058;-85
2022/09/29 15:04:15;;;;;;;1.65;0.90;;;15.40;80.40;;;;;;4830569;29;20415;-85
2022/09/29 15:06:50;;;;;;;1.85;0.50;;;15.30;80.10;;;;;;4836138;29;20125;-84
2022/09/29 15:09:23;;;;;;;3.45;0.50;;;15.30;80.20;;;;;;4846404;29;20452;-90
2022/09/29 15:11:56;;;;;;;0.77;0.40;;;15.20;80.10;;;;;;4855421;29;20046;-88
2022/09/29 15:14:33;;;;;;;1.08;0.50;;;15.20;80.50;;;;;;4861852;29;20490;-90
2022/09/29 15:17:50;;;;;;;0.85;0.55;;;15.10;80.60;;;;;;4849422;29;20054;-86
2022/09/29 15:20:26;;;;;;;0.85;0.38;;;15.10;80.20;;;;;;4857093;29;20053;-86
2022/09/29 15:23:13;;;;;;;0.70;0.35;;;15.00;80.60;;;;;;4853778;29;20506;-91
2022/09/29 15:25:43;;;;;;;1.10;0.40;;;14.90;80.60;;;;;;4851125;29;20143;-90
2022/09/29 15:28:19;;;;;;;0.70;0.32;;;14.80;81.00;;;;;;4853435;29;20585;-88
2022/09/29 15:30:51;;;;;;;0.55;0.30;;;14.70;81.20;;;;;;4850635;29;20156;-89
2022/09/29 15:33:27;;;;;;;0.57;0.30;;;14.70;81.30;;;;;;4850960;29;20076;-91
2022/09/29 15:36:19;;;;;;;1.13;0.40;;;14.70;81.20;;;;;;4853470;29;20123;-81
2022/09/29 15:38:51;;;;;;;0.80;0.40;;;14.80;81.20;;;;;;4850765;29;20049;-85
2022/09/29 15:41:22;;;;;;;1.52;0.55;;;14.70;81.20;;;;;;4842032;29;20295;-85
2022/09/29 15:44:10;;;;;;;0.60;0.28;;;14.70;81.30;;;;;;4853828;29;20088;-84
2022/09/29 15:46:40;;;;;;;1.13;0.28;;;14.70;81.40;;;;;;4864080;29;20049;-85
2022/09/29 15:49:20;;;;;;;1.25;0.50;;;14.60;81.60;;;;;;4862580;29;20050;-81
2022/09/29 15:52:13;;;;;;;0.60;0.30;;;14.60;82.20;;;;;;4855442;29;20068;-86